Time;durP1;ratioP1;P1;durP2;ratioP2;P2;SDS_P1;SDS_P2;PMS_P1;PMS_P2;Temp;Humidity;BMP_temperature;BMP_pressure;BME280_temperature;BME280_humidity;BME280_pressure;Samples;Min_cycle;Max_cycle;Signal;HPM_P1;HPM_P2
2023/08/12 00:00:11;;;;;;;7.37;6.67;;;;;;;21.46;69.53;98202.63;5050799;28;20538;-76
2023/08/12 00:02:38;;;;;;;7.80;7.10;;;;;;;21.46;69.59;98195.19;5050506;28;20839;-76
2023/08/12 00:05:05;;;;;;;7.77;7.17;;;;;;;21.39;69.65;98189.13;5050595;28;20462;-76
2023/08/12 00:07:32;;;;;;;7.87;7.17;;;;;;;21.39;69.55;98186.38;5050643;28;20498;-76
2023/08/12 00:09:59;;;;;;;8.07;7.47;;;;;;;21.37;69.39;98188.56;5050573;28;20451;-76
2023/08/12 00:12:26;;;;;;;8.50;7.80;;;;;;;21.23;70.22;98181.06;5050606;28;20882;-76
2023/08/12 00:14:53;;;;;;;8.80;7.87;;;;;;;21.19;70.61;98175.22;5050125;28;20524;-76
2023/08/12 00:17:21;;;;;;;7.90;7.30;;;;;;;21.08;71.21;98179.03;5050442;28;20511;-75
2023/08/12 00:19:48;;;;;;;7.70;7.10;;;;;;;21.23;70.97;98176.38;5050829;28;20450;-76
2023/08/12 00:22:15;;;;;;;7.50;6.80;;;;;;;20.97;71.81;98177.28;5050046;28;20485;-76
2023/08/12 00:24:42;;;;;;;8.23;7.53;;;;;;;20.96;72.17;98175.63;5050395;28;20537;-76
2023/08/12 00:27:09;;;;;;;10.40;7.53;;;;;;;20.83;72.73;98168.66;5050353;28;20502;-75
2023/08/12 00:29:35;;;;;;;8.17;7.57;;;;;;;20.72;73.18;98167.78;5050147;28;20455;-75
2023/08/12 00:32:03;;;;;;;7.60;7.00;;;;;;;20.51;74.15;98182.47;5050530;28;20927;-76
2023/08/12 00:34:31;;;;;;;8.70;8.00;;;;;;;20.65;73.89;98172.69;5049843;28;20498;-76
2023/08/12 00:36:58;;;;;;;9.90;9.03;;;;;;;20.56;74.09;98167.91;5050312;28;20440;-76
2023/08/12 00:39:24;;;;;;;7.60;6.90;;;;;;;20.51;74.59;98162.38;5050178;28;20530;-76
2023/08/12 00:41:51;;;;;;;8.53;7.83;;;;;;;20.25;75.56;98159.41;5050354;28;20471;-76
2023/08/12 00:44:18;;;;;;;8.93;8.23;;;;;;;20.19;75.90;98165.09;5049776;28;20454;-75
2023/08/12 00:46:45;;;;;;;9.30;8.40;;;;;;;20.10;76.42;98157.34;5049871;28;20594;-75
2023/08/12 00:49:12;;;;;;;8.07;7.43;;;;;;;20.16;76.45;98160.13;5049768;28;21026;-76
2023/08/12 00:51:41;;;;;;;8.87;8.17;;;;;;;19.99;76.92;98155.59;5049613;28;20476;-76
2023/08/12 00:54:09;;;;;;;8.83;8.03;;;;;;;19.91;76.98;98150.56;5048942;28;20884;-76
2023/08/12 00:56:36;;;;;;;8.70;8.10;;;;;;;19.77;77.93;98147.41;5049742;28;20543;-76
2023/08/12 00:59:05;;;;;;;9.60;8.73;;;;;;;19.67;78.48;98146.47;5049843;28;20527;-76
2023/08/12 01:01:32;;;;;;;9.67;8.77;;;;;;;19.58;79.08;98142.50;5049678;28;20850;-76
2023/08/12 01:03:59;;;;;;;9.17;8.37;;;;;;;19.48;79.61;98150.63;5049602;28;20486;-76
2023/08/12 01:06:26;;;;;;;8.70;8.00;;;;;;;19.51;79.65;98147.38;5049909;28;20446;-76
2023/08/12 01:08:54;;;;;;;9.27;8.43;;;;;;;19.46;79.64;98140.72;5049362;28;20926;-76
2023/08/12 01:11:28;;;;;;;8.17;7.50;;;;;;;19.51;79.39;98144.63;5049229;28;20519;-76
2023/08/12 01:13:58;;;;;;;9.83;8.87;;;;;;;19.33;80.01;98152.06;5049000;28;20492;-75
2023/08/12 01:16:28;;;;;;;8.77;8.10;;;;;;;19.38;79.90;98143.91;5049105;28;20921;-75
2023/08/12 01:18:55;;;;;;;9.53;8.80;;;;;;;19.31;80.22;98135.03;5049278;28;21010;-76
2023/08/12 01:21:22;;;;;;;9.20;8.50;;;;;;;19.36;79.76;98140.59;5048848;28;21021;-76
2023/08/12 01:23:51;;;;;;;8.37;7.67;;;;;;;19.31;80.43;98142.44;5049189;28;20454;-76
2023/08/12 01:26:17;;;;;;;9.33;8.43;;;;;;;19.28;80.26;98131.97;5049636;28;20472;-76
2023/08/12 01:28:44;;;;;;;10.07;9.17;;;;;;;19.28;80.26;98134.72;5049652;28;20538;-76
2023/08/12 01:31:13;;;;;;;10.63;9.57;;;;;;;19.17;80.70;98131.00;5049157;28;20480;-76
2023/08/12 01:33:44;;;;;;;9.40;8.60;;;;;;;19.05;81.49;98119.34;5048896;28;20483;-76
2023/08/12 01:36:14;;;;;;;8.97;8.23;;;;;;;19.06;81.43;98118.25;5050156;28;20454;-75
2023/08/12 01:38:41;;;;;;;10.33;9.20;;;;;;;19.03;81.62;98113.28;5050051;28;20474;-76
2023/08/12 01:41:11;;;;;;;10.40;9.60;;;;;;;19.08;81.48;98116.91;5049528;28;20454;-75
2023/08/12 01:43:38;;;;;;;9.93;9.10;;;;;;;19.02;81.66;98117.94;5048792;28;20455;-75
2023/08/12 01:46:05;;;;;;;10.23;9.43;;;;;;;19.02;81.64;98117.94;5049768;28;20526;-75
2023/08/12 01:48:32;;;;;;;10.00;9.20;;;;;;;19.04;81.71;98112.19;5049014;28;20451;-75
2023/08/12 01:50:59;;;;;;;9.10;8.30;;;;;;;19.13;81.33;98117.00;5048801;28;20439;-76
2023/08/12 01:53:25;;;;;;;10.10;9.30;;;;;;;19.09;81.52;98112.25;5048955;28;20458;-75
2023/08/12 01:55:53;;;;;;;10.40;9.50;;;;;;;19.16;81.40;98114.81;5049062;28;20501;-75
2023/08/12 01:58:21;;;;;;;9.60;8.70;;;;;;;19.11;81.45;98113.66;5049236;28;20443;-75
2023/08/12 02:00:48;;;;;;;9.53;8.53;;;;;;;19.11;81.48;98112.84;5049260;28;20522;-75
2023/08/12 02:03:14;;;;;;;10.40;9.50;;;;;;;19.20;81.10;98111.28;5049168;28;20485;-75
2023/08/12 02:05:41;;;;;;;9.97;9.17;;;;;;;19.18;81.38;98115.38;5048664;28;20455;-76
2023/08/12 02:08:08;;;;;;;9.43;8.63;;;;;;;19.11;81.66;98115.59;5049177;28;20482;-76
2023/08/12 02:10:35;;;;;;;9.63;8.60;;;;;;;19.17;81.15;98119.22;5048911;28;20442;-76
2023/08/12 02:13:02;;;;;;;9.00;8.40;;;;;;;19.07;81.74;98108.94;5049303;28;20953;-75
2023/08/12 02:15:31;;;;;;;11.03;10.13;;;;;;;19.13;81.23;98119.72;5048820;28;20581;-76
2023/08/12 02:17:58;;;;;;;10.57;9.57;;;;;;;19.16;81.51;98112.91;5048844;28;20788;-76
2023/08/12 02:20:25;;;;;;;10.00;9.20;;;;;;;19.21;81.13;98107.47;5050005;28;20463;-76
2023/08/12 02:22:52;;;;;;;9.80;9.10;;;;;;;19.29;80.73;98104.28;5052626;28;20459;-76
2023/08/12 02:25:19;;;;;;;9.87;9.00;;;;;;;19.23;80.96;98105.28;5052501;28;21254;-76
2023/08/12 02:27:45;;;;;;;10.40;9.57;;;;;;;19.20;81.01;98113.19;5052457;28;21016;-76
2023/08/12 02:30:13;;;;;;;9.83;9.00;;;;;;;19.23;80.97;98102.53;5053083;28;20451;-75
2023/08/12 02:32:43;;;;;;;10.53;9.70;;;;;;;19.23;81.02;98093.47;5052552;28;20477;-75
2023/08/12 02:35:10;;;;;;;9.17;8.37;;;;;;;19.32;80.61;98102.94;5052388;28;20479;-75
2023/08/12 02:37:37;;;;;;;9.73;8.93;;;;;;;19.41;80.15;98099.47;5052588;28;20532;-76
2023/08/12 02:40:05;;;;;;;10.37;9.23;;;;;;;19.49;79.98;98094.63;5052831;28;20446;-75
2023/08/12 02:42:32;;;;;;;9.47;8.67;;;;;;;19.45;79.96;98095.13;5053083;28;20475;-76
2023/08/12 02:44:59;;;;;;;10.43;9.60;;;;;;;19.47;79.96;98094.88;5052365;28;20945;-75
2023/08/12 02:47:26;;;;;;;9.00;8.23;;;;;;;19.48;79.85;98088.31;5051979;28;20451;-75
2023/08/12 02:49:54;;;;;;;10.67;9.70;;;;;;;19.59;79.19;98092.00;5051580;28;20497;-76
2023/08/12 02:52:21;;;;;;;9.37;8.47;;;;;;;19.61;78.86;98100.81;5052519;28;20541;-76
2023/08/12 02:54:48;;;;;;;8.77;7.87;;;;;;;19.55;79.32;98099.91;5052302;28;20510;-76
2023/08/12 02:57:14;;;;;;;9.77;9.07;;;;;;;19.66;79.13;98100.88;5052790;28;20451;-75
2023/08/12 02:59:41;;;;;;;9.97;9.17;;;;;;;19.64;78.54;98098.38;5052523;28;20453;-76
2023/08/12 03:02:08;;;;;;;9.97;9.07;;;;;;;19.63;78.71;98095.88;5052051;28;20978;-75
2023/08/12 03:04:35;;;;;;;9.27;8.50;;;;;;;19.68;78.59;98087.69;5052329;28;20541;-74
2023/08/12 03:07:03;;;;;;;9.37;8.60;;;;;;;19.71;78.07;98106.41;5053073;28;20443;-76
2023/08/12 03:09:30;;;;;;;9.10;8.50;;;;;;;19.61;78.52;98087.91;5052315;28;20449;-76
2023/08/12 03:12:01;;;;;;;9.67;8.77;;;;;;;19.72;78.13;98084.19;5052204;28;20482;-76
2023/08/12 03:14:29;;;;;;;12.70;8.63;;;;;;;19.79;78.14;98089.47;5052027;28;20525;-76
2023/08/12 03:16:55;;;;;;;8.70;8.00;;;;;;;19.64;78.41;98097.53;5052798;28;20459;-76
2023/08/12 03:19:22;;;;;;;8.90;8.20;;;;;;;19.77;78.07;98091.66;5052510;28;20449;-76
2023/08/12 03:21:49;;;;;;;9.07;8.37;;;;;;;19.76;77.87;98087.25;5052536;28;20550;-76
2023/08/12 03:24:17;;;;;;;10.37;9.27;;;;;;;19.87;77.43;98085.41;5051924;28;20502;-76
2023/08/12 03:26:44;;;;;;;9.50;8.10;;;;;;;19.86;77.55;98084.56;5052173;28;20843;-76
2023/08/12 03:29:11;;;;;;;8.50;7.80;;;;;;;19.79;77.86;98084.81;5052489;28;20448;-75
2023/08/12 03:31:37;;;;;;;9.30;8.30;;;;;;;20.01;76.76;98076.47;5050771;28;20544;-75
2023/08/12 03:34:04;;;;;;;8.40;7.70;;;;;;;20.02;76.76;98078.13;5051592;28;20536;-76
2023/08/12 03:36:31;;;;;;;9.20;8.50;;;;;;;20.18;76.32;98078.25;5051561;28;20487;-76
2023/08/12 03:38:58;;;;;;;8.77;8.07;;;;;;;20.19;76.20;98077.16;5052125;28;20808;-75
2023/08/12 03:41:26;;;;;;;8.80;8.13;;;;;;;20.24;75.87;98075.28;5051745;28;20539;-76
2023/08/12 03:43:53;;;;;;;8.43;7.73;;;;;;;20.22;75.71;98082.94;5052898;28;20494;-76
2023/08/12 03:46:19;;;;;;;9.17;8.37;;;;;;;20.02;76.52;98080.06;5052053;28;20445;-76
2023/08/12 03:48:46;;;;;;;10.40;8.50;;;;;;;19.92;76.95;98078.03;5052128;28;20518;-75
2023/08/12 03:51:13;;;;;;;9.87;9.00;;;;;;;19.96;77.05;98079.16;5051416;28;21053;-76
2023/08/12 03:53:39;;;;;;;8.90;8.20;;;;;;;20.19;76.30;98083.47;5050755;28;20902;-76
2023/08/12 03:56:06;;;;;;;9.77;8.87;;;;;;;20.06;76.21;98078.44;5051788;28;20511;-76
2023/08/12 03:58:34;;;;;;;8.90;8.10;;;;;;;20.04;76.30;98081.44;5051616;28;20491;-75
2023/08/12 04:01:02;;;;;;;9.53;8.63;;;;;;;20.05;76.63;98082.28;5051898;28;20496;-75
2023/08/12 04:03:28;;;;;;;8.73;7.97;;;;;;;20.06;76.18;98078.44;5050669;28;20447;-76
2023/08/12 04:05:55;;;;;;;8.63;7.93;;;;;;;20.24;75.87;98090.94;5051320;28;20542;-76
2023/08/12 04:08:23;;;;;;;8.90;8.00;;;;;;;19.97;76.72;98099.22;5051513;28;20538;-75
2023/08/12 04:10:51;;;;;;;9.00;8.23;;;;;;;19.98;76.47;98093.47;5050546;28;21006;-76
2023/08/12 04:13:18;;;;;;;8.27;7.67;;;;;;;20.26;75.61;98099.75;5051520;28;20477;-75
2023/08/12 04:15:49;;;;;;;8.87;8.10;;;;;;;20.09;76.09;98100.72;5050943;28;21087;-76
2023/08/12 04:18:16;;;;;;;8.53;7.83;;;;;;;20.20;76.09;98095.28;5050947;28;20915;-76
2023/08/12 04:20:42;;;;;;;8.30;7.60;;;;;;;20.20;75.53;98101.63;5050179;28;20565;-76
2023/08/12 04:23:09;;;;;;;8.90;8.20;;;;;;;20.47;75.10;98101.56;5050281;28;20534;-76
2023/08/12 04:25:36;;;;;;;8.50;7.70;;;;;;;20.26;75.58;98094.25;5050067;28;20490;-76
2023/08/12 04:28:03;;;;;;;8.00;7.30;;;;;;;20.39;75.25;98100.16;5050587;28;20814;-75
2023/08/12 04:30:30;;;;;;;9.07;8.17;;;;;;;20.53;74.82;98097.78;5050232;28;20471;-76
2023/08/12 04:32:58;;;;;;;8.03;7.43;;;;;;;20.53;74.55;98103.28;5050166;28;20836;-76
2023/08/12 04:35:25;;;;;;;9.10;8.37;;;;;;;20.50;74.51;98090.06;5050091;28;20581;-75
2023/08/12 04:37:51;;;;;;;8.30;7.70;;;;;;;20.48;74.71;98097.75;5050093;28;20452;-75
2023/08/12 04:40:18;;;;;;;9.20;8.47;;;;;;;20.49;74.51;98104.06;5050304;28;20970;-76
2023/08/12 04:42:45;;;;;;;8.00;7.30;;;;;;;20.35;75.01;98103.69;5049929;28;20827;-76
2023/08/12 04:45:12;;;;;;;8.17;7.47;;;;;;;20.25;75.33;98109.09;5048943;28;20453;-76
2023/08/12 04:47:39;;;;;;;9.37;8.53;;;;;;;20.29;75.35;98104.72;5049541;28;20446;-76
2023/08/12 04:50:08;;;;;;;8.43;7.63;;;;;;;20.27;75.30;98101.41;5050349;28;20846;-76
2023/08/12 04:52:35;;;;;;;9.17;8.47;;;;;;;20.25;75.43;98090.66;5050051;28;20494;-76
2023/08/12 04:55:02;;;;;;;8.93;8.23;;;;;;;20.23;75.63;98100.28;5049700;28;20811;-76
2023/08/12 04:57:29;;;;;;;7.67;7.07;;;;;;;20.18;76.43;98091.97;5049609;28;20447;-76
2023/08/12 04:59:56;;;;;;;8.07;7.27;;;;;;;20.35;75.20;98103.69;5049861;28;20486;-76
2023/08/12 05:02:23;;;;;;;8.30;7.60;;;;;;;20.19;75.40;98093.63;5049526;28;20470;-76
2023/08/12 05:04:50;;;;;;;8.67;7.87;;;;;;;19.96;76.82;98100.31;5049319;28;20526;-76
2023/08/12 05:07:18;;;;;;;7.90;7.30;;;;;;;20.22;76.17;98101.38;5049891;28;20461;-76
2023/08/12 05:09:45;;;;;;;8.60;7.20;;;;;;;20.33;75.77;98112.19;5049450;28;20474;-76
2023/08/12 05:12:12;;;;;;;8.03;7.43;;;;;;;20.25;75.56;98106.34;5049849;28;20473;-76
2023/08/12 05:14:40;;;;;;;8.23;7.53;;;;;;;20.26;75.97;98106.06;5049248;28;20863;-75
2023/08/12 05:17:07;;;;;;;8.10;7.50;;;;;;;20.40;75.58;98101.00;5049366;28;20616;-75
2023/08/12 05:19:34;;;;;;;7.47;6.87;;;;;;;20.47;75.36;98095.28;5049737;28;20486;-76
2023/08/12 05:22:00;;;;;;;7.53;6.90;;;;;;;20.27;75.57;98093.16;5049481;28;20562;-75
2023/08/12 05:24:29;;;;;;;7.90;7.30;;;;;;;20.33;75.79;98101.19;5049276;28;20468;-76
2023/08/12 05:26:56;;;;;;;7.90;7.30;;;;;;;20.34;76.04;98088.28;5049513;28;20451;-76
2023/08/12 05:29:22;;;;;;;8.77;7.80;;;;;;;20.44;76.01;98082.88;5049192;28;20451;-75
2023/08/12 05:32:09;;;;;;;7.83;7.20;;;;;;;20.44;75.75;98075.47;5049181;28;20455;-76
2023/08/12 05:34:56;;;;;;;8.13;7.43;;;;;;;20.56;75.26;98091.75;5048775;28;20473;-75
2023/08/12 05:37:42;;;;;;;8.23;7.53;;;;;;;20.51;75.39;98108.22;5048936;28;20969;-76
2023/08/12 05:40:30;;;;;;;8.57;7.67;;;;;;;20.59;75.33;98115.16;5049033;28;20497;-76
2023/08/12 05:43:17;;;;;;;8.37;7.67;;;;;;;20.62;75.72;98120.94;5049086;28;20444;-75
2023/08/12 05:46:03;;;;;;;8.40;7.70;;;;;;;20.45;76.78;98114.78;5048889;28;20466;-75
2023/08/12 05:48:50;;;;;;;8.03;7.40;;;;;;;20.18;78.38;98108.47;5048900;28;20485;-75
2023/08/12 05:51:38;;;;;;;8.70;8.00;;;;;;;20.18;78.81;98108.47;5048882;28;20509;-76
2023/08/12 05:54:24;;;;;;;7.87;7.27;;;;;;;20.12;78.67;98093.88;5048827;28;20454;-75
2023/08/12 05:57:12;;;;;;;9.07;8.37;;;;;;;20.18;78.39;98100.22;5052239;28;20480;-75
2023/08/12 05:59:59;;;;;;;7.67;7.07;;;;;;;20.33;77.90;98108.59;5052832;28;20439;-76
2023/08/12 06:02:26;;;;;;;8.53;7.90;;;;;;;20.33;77.84;98103.09;5053025;28;20459;-76
2023/08/12 06:05:13;;;;;;;8.40;7.63;;;;;;;20.42;78.15;98091.41;5052675;28;20427;-75
2023/08/12 06:08:00;;;;;;;8.73;7.93;;;;;;;20.83;76.27;98093.53;5052842;28;20533;-75
2023/08/12 06:10:46;;;;;;;8.53;7.93;;;;;;;20.69;77.42;98106.97;5052489;28;20468;-76
2023/08/12 06:13:14;;;;;;;9.23;8.47;;;;;;;20.57;77.80;98107.16;5052882;28;20835;-75
2023/08/12 06:15:41;;;;;;;10.40;9.50;;;;;;;20.26;80.11;98105.25;5052390;28;20532;-75
2023/08/12 06:18:08;;;;;;;8.40;7.80;;;;;;;20.24;81.18;98100.00;5052767;28;20538;-75
2023/08/12 06:20:35;;;;;;;8.93;8.33;;;;;;;20.14;81.65;98081.50;5052715;28;20579;-75
2023/08/12 06:23:01;;;;;;;8.70;8.00;;;;;;;20.08;82.15;98076.25;5052441;28;20443;-74
2023/08/12 06:25:28;;;;;;;10.23;9.30;;;;;;;20.20;82.06;98074.13;5052527;28;20521;-75
2023/08/12 06:27:55;;;;;;;9.23;8.53;;;;;;;20.07;82.11;98085.59;5052207;28;21020;-74
2023/08/12 06:30:23;;;;;;;9.57;8.87;;;;;;;20.16;82.29;98088.66;5052719;28;20504;-75
2023/08/12 06:32:50;;;;;;;9.77;9.07;;;;;;;20.17;82.46;98082.91;5052828;28;20480;-75
2023/08/12 06:35:36;;;;;;;10.27;9.57;;;;;;;19.94;82.68;98089.59;5051795;28;20466;-75
2023/08/12 06:38:23;;;;;;;9.13;8.43;;;;;;;20.12;81.94;98089.22;5052205;28;20450;-75
2023/08/12 06:41:10;;;;;;;9.33;8.57;;;;;;;20.45;81.32;98084.53;5052010;28;20535;-75
2023/08/12 06:43:56;;;;;;;8.97;8.20;;;;;;;20.65;79.43;98087.41;5051793;28;20458;-74
2023/08/12 06:46:44;;;;;;;9.37;8.67;;;;;;;20.87;78.61;98089.19;5051484;28;20522;-75
2023/08/12 06:49:31;;;;;;;8.67;8.07;;;;;;;21.03;77.38;98091.75;5051738;28;20513;-75
2023/08/12 06:51:58;;;;;;;8.30;7.50;;;;;;;21.26;76.94;98087.72;5051887;28;20470;-74
2023/08/12 06:54:24;;;;;;;9.10;8.40;;;;;;;21.39;75.80;98097.44;5051802;28;20491;-74
2023/08/12 06:56:51;;;;;;;8.33;7.60;;;;;;;21.57;75.33;98098.84;5051902;28;20489;-75
2023/08/12 06:59:38;;;;;;;8.67;7.97;;;;;;;21.54;74.93;98104.88;5051835;28;20463;-75
2023/08/12 07:02:26;;;;;;;8.00;7.27;;;;;;;21.75;73.82;98109.38;5051842;28;20474;-75
2023/08/12 07:04:52;;;;;;;9.00;8.20;;;;;;;21.78;73.78;98109.63;5051546;28;20804;-75
2023/08/12 07:07:19;;;;;;;7.93;7.23;;;;;;;21.99;73.20;98105.00;5050688;28;20958;-75
2023/08/12 07:09:46;;;;;;;8.53;7.83;;;;;;;22.73;70.48;98098.91;5053209;28;20443;-75
2023/08/12 07:12:13;;;;;;;7.23;6.70;;;;;;;23.53;68.23;98098.94;5052236;28;20525;-75
2023/08/12 07:14:40;;;;;;;7.27;6.60;;;;;;;23.85;66.64;98101.22;5051869;28;20525;-75
2023/08/12 07:17:06;;;;;;;7.57;6.87;;;;;;;24.31;63.53;98109.22;5051451;28;20548;-75
2023/08/12 07:19:35;;;;;;;7.70;7.00;;;;;;;25.07;61.09;98095.47;5051415;28;20556;-75
2023/08/12 07:22:01;;;;;;;7.00;6.37;;;;;;;25.49;58.88;98095.78;5051142;28;20473;-75
2023/08/12 07:24:28;;;;;;;7.30;6.80;;;;;;;26.35;56.88;98092.59;5051497;28;20562;-75
2023/08/12 07:26:55;;;;;;;6.50;5.90;;;;;;;26.28;57.08;98097.69;5051539;28;21454;-75
2023/08/12 07:29:22;;;;;;;6.70;6.20;;;;;;;26.07;56.42;98096.34;5051491;28;20443;-75
2023/08/12 07:31:49;;;;;;;7.00;6.40;;;;;;;25.88;57.47;98099.16;5051327;28;20467;-76
2023/08/12 07:34:16;;;;;;;6.90;6.37;;;;;;;25.76;58.39;98096.00;5050976;28;20543;-75
2023/08/12 07:36:44;;;;;;;6.33;5.73;;;;;;;26.58;55.38;98092.78;5051009;28;20479;-75
2023/08/12 07:39:11;;;;;;;6.03;5.57;;;;;;;27.07;54.06;98083.81;5051321;28;20459;-75
2023/08/12 07:41:38;;;;;;;6.17;5.60;;;;;;;27.16;53.03;98089.47;5050979;28;20471;-75
2023/08/12 07:44:05;;;;;;;5.80;5.40;;;;;;;27.27;53.11;98086.19;5050731;28;20454;-75
2023/08/12 07:46:32;;;;;;;5.60;5.10;;;;;;;27.94;50.78;98088.38;5050984;28;20933;-75
2023/08/12 07:48:59;;;;;;;5.10;4.60;;;;;;;28.42;50.20;98091.38;5051053;28;20439;-76
2023/08/12 07:51:25;;;;;;;5.60;5.07;;;;;;;28.63;50.26;98095.28;5050897;28;20544;-76
2023/08/12 07:53:53;;;;;;;5.87;5.37;;;;;;;28.37;50.69;98091.50;5051032;28;20439;-76
2023/08/12 07:56:20;;;;;;;5.67;5.17;;;;;;;28.43;49.86;98087.44;5050806;28;21005;-76
2023/08/12 07:58:47;;;;;;;6.40;5.17;;;;;;;29.02;48.54;98091.75;5050591;28;20450;-76
2023/08/12 08:01:14;;;;;;;6.37;5.87;;;;;;;29.54;47.54;98091.16;5050609;28;20983;-76
2023/08/12 08:03:41;;;;;;;6.17;5.67;;;;;;;29.36;47.13;98079.91;5050407;28;20455;-76
2023/08/12 08:06:08;;;;;;;6.30;5.80;;;;;;;29.04;47.41;98081.09;5050969;28;20489;-76
2023/08/12 08:08:34;;;;;;;5.83;5.33;;;;;;;29.23;46.46;98086.44;5050503;28;20931;-76
2023/08/12 08:11:03;;;;;;;5.83;5.43;;;;;;;29.22;47.18;98084.78;5050100;28;20550;-76
2023/08/12 08:13:29;;;;;;;5.70;5.30;;;;;;;28.46;48.89;98080.44;5050475;28;20508;-76
2023/08/12 08:15:56;;;;;;;5.77;5.37;;;;;;;28.60;49.07;98090.34;5050645;28;20878;-76
2023/08/12 08:18:23;;;;;;;5.30;4.90;;;;;;;28.99;48.02;98080.41;5050012;28;20490;-76
2023/08/12 08:20:51;;;;;;;5.80;5.40;;;;;;;29.83;46.13;98082.16;5050150;28;20459;-76
2023/08/12 08:23:18;;;;;;;6.10;5.50;;;;;;;30.66;44.01;98074.44;5050596;28;20447;-76
2023/08/12 08:25:45;;;;;;;4.50;4.20;;;;;;;31.35;40.63;98077.81;5050120;28;20883;-76
2023/08/12 08:28:13;;;;;;;5.40;5.00;;;;;;;32.15;38.76;98085.38;5050533;28;20479;-77
2023/08/12 08:30:39;;;;;;;4.90;4.57;;;;;;;32.04;39.36;98087.75;5049628;28;20541;-76
2023/08/12 08:33:06;;;;;;;4.60;4.30;;;;;;;32.07;39.10;98081.47;5050210;28;20529;-76
2023/08/12 08:35:33;;;;;;;5.40;4.80;;;;;;;32.64;38.10;98070.41;5050594;28;20522;-76
2023/08/12 08:38:00;;;;;;;5.10;4.60;;;;;;;32.14;38.45;98080.94;5050343;28;20510;-76
2023/08/12 08:40:27;;;;;;;4.70;4.40;;;;;;;31.68;39.88;98069.56;5050083;28;20816;-75
2023/08/12 08:42:54;;;;;;;4.93;4.63;;;;;;;30.83;40.77;98068.81;5049813;28;20815;-76
2023/08/12 08:45:23;;;;;;;4.67;4.37;;;;;;;30.16;42.63;98076.94;5049721;28;20444;-76
2023/08/12 08:47:50;;;;;;;5.20;4.80;;;;;;;30.65;41.74;98079.19;5050409;28;20806;-74
2023/08/12 08:50:18;;;;;;;5.00;4.60;;;;;;;31.33;41.09;98094.09;5050233;28;21018;-76
2023/08/12 08:52:45;;;;;;;5.10;4.70;;;;;;;31.71;40.52;98090.47;5049909;28;20465;-75
2023/08/12 08:55:13;;;;;;;5.40;5.00;;;;;;;32.09;40.53;98084.75;5049441;28;20487;-76
2023/08/12 08:57:39;;;;;;;5.37;4.90;;;;;;;32.73;38.47;98093.56;5049768;28;20482;-75
2023/08/12 09:00:09;;;;;;;5.40;5.00;;;;;;;32.40;38.55;98095.56;5049564;28;20471;-76
2023/08/12 09:02:38;;;;;;;5.80;5.40;;;;;;;32.66;38.69;98087.72;5049893;28;20451;-77
2023/08/12 09:05:06;;;;;;;5.57;4.97;;;;;;;32.80;37.68;98081.00;5049547;28;20458;-76
2023/08/12 09:07:32;;;;;;;6.87;5.23;;;;;;;32.73;38.05;98079.56;5049799;28;20441;-76
2023/08/12 09:10:03;;;;;;;5.27;4.80;;;;;;;32.62;38.23;98077.53;5049130;28;21022;-76
2023/08/12 09:12:31;;;;;;;5.37;5.00;;;;;;;32.79;39.05;98073.75;5049966;28;20541;-76
2023/08/12 09:14:58;;;;;;;6.47;5.83;;;;;;;33.01;37.97;98087.34;5049755;28;20469;-76
2023/08/12 09:17:25;;;;;;;5.53;5.20;;;;;;;32.18;39.22;98093.06;5049567;28;21085;-76
2023/08/12 09:19:53;;;;;;;5.67;5.37;;;;;;;32.17;39.66;98085.81;5049379;28;20475;-76
2023/08/12 09:22:20;;;;;;;5.43;5.03;;;;;;;32.14;40.65;98083.72;5049492;28;20869;-77
2023/08/12 09:24:47;;;;;;;5.50;5.10;;;;;;;33.38;37.51;98086.25;5049237;28;20439;-76
2023/08/12 09:27:18;;;;;;;5.97;5.57;;;;;;;33.98;35.68;98076.13;5049594;28;20455;-76
2023/08/12 09:29:44;;;;;;;5.60;5.20;;;;;;;33.25;36.91;98078.94;5048861;28;20993;-76
2023/08/12 09:32:12;;;;;;;5.17;4.87;;;;;;;33.86;36.28;98078.97;5049118;28;20521;-76
2023/08/12 09:34:39;;;;;;;5.13;4.73;;;;;;;34.43;34.94;98068.66;5049478;28;20514;-76
2023/08/12 09:37:07;;;;;;;5.10;4.80;;;;;;;34.80;34.78;98072.09;5049215;28;20561;-76
2023/08/12 09:39:34;;;;;;;5.47;5.07;;;;;;;35.03;34.35;98065.50;5049097;28;20538;-76
2023/08/12 09:42:01;;;;;;;5.40;5.00;;;;;;;34.98;33.68;98070.59;5049582;28;20454;-76
2023/08/12 09:44:27;;;;;;;4.53;4.23;;;;;;;34.56;34.75;98065.41;5049122;28;20528;-76
2023/08/12 09:46:58;;;;;;;4.90;4.60;;;;;;;34.78;34.63;98063.97;5049333;28;20479;-76
2023/08/12 09:49:25;;;;;;;5.00;4.70;;;;;;;34.44;34.56;98054.19;5049576;28;20529;-76
2023/08/12 09:51:52;;;;;;;5.37;4.87;;;;;;;34.31;35.13;98044.19;5049314;28;20983;-75
2023/08/12 09:54:20;;;;;;;4.83;4.43;;;;;;;35.33;33.13;98042.53;5048844;28;20454;-76
2023/08/12 09:56:48;;;;;;;5.87;5.30;;;;;;;35.64;32.53;98044.50;5049352;28;20478;-76
2023/08/12 09:59:19;;;;;;;4.53;4.20;;;;;;;35.67;32.05;98032.50;5049175;28;20509;-76
2023/08/12 10:01:46;;;;;;;4.90;4.50;;;;;;;34.63;34.00;98022.59;5048808;28;21143;-77
2023/08/12 10:04:15;;;;;;;5.30;4.90;;;;;;;32.98;37.34;98003.91;5048860;28;20871;-76
2023/08/12 10:06:42;;;;;;;4.57;4.27;;;;;;;32.75;37.30;98027.94;5049176;28;20501;-76
2023/08/12 10:09:11;;;;;;;4.87;4.57;;;;;;;32.44;38.16;98029.25;5048586;28;20978;-76
2023/08/12 10:11:39;;;;;;;5.20;4.80;;;;;;;32.19;38.70;98016.25;5048647;28;20471;-76
2023/08/12 10:14:06;;;;;;;4.93;4.53;;;;;;;31.35;41.03;98016.25;5048650;28;20505;-76
2023/08/12 10:16:33;;;;;;;5.27;4.87;;;;;;;31.18;41.60;98021.16;5048996;28;20542;-76
2023/08/12 10:19:00;;;;;;;5.53;5.23;;;;;;;30.80;41.76;98026.72;5049008;28;20505;-76
2023/08/12 10:21:28;;;;;;;5.33;4.93;;;;;;;30.99;42.33;98019.53;5048911;28;20471;-76
2023/08/12 10:23:55;;;;;;;5.57;5.07;;;;;;;31.55;41.14;98022.19;5048138;28;20856;-76
2023/08/12 10:26:21;;;;;;;4.83;4.53;;;;;;;31.66;41.40;98024.28;5049126;28;20527;-77
2023/08/12 10:28:51;;;;;;;5.23;4.83;;;;;;;31.72;40.23;98019.31;5048641;28;20443;-76
2023/08/12 10:31:19;;;;;;;4.97;4.47;;;;;;;31.88;39.61;98014.72;5048927;28;20483;-77
2023/08/12 10:33:49;;;;;;;5.37;4.93;;;;;;;31.86;39.87;98017.06;5048405;28;20450;-76
2023/08/12 10:36:18;;;;;;;5.33;4.83;;;;;;;31.46;40.70;98011.09;5049285;28;20556;-76
2023/08/12 10:38:45;;;;;;;5.63;5.23;;;;;;;31.40;40.63;98013.25;5048865;28;20541;-76
2023/08/12 10:41:17;;;;;;;5.30;4.80;;;;;;;31.53;40.39;98018.91;5049238;28;20536;-76
2023/08/12 10:43:55;;;;;;;5.53;4.73;;;;;;;31.84;40.30;98027.78;5051995;28;20459;-76
2023/08/12 10:46:23;;;;;;;5.90;5.40;;;;;;;32.54;39.93;98033.56;5051945;28;20439;-76
2023/08/12 10:49:03;;;;;;;5.23;4.83;;;;;;;33.24;38.00;98024.00;5052346;28;21013;-76
2023/08/12 10:51:40;;;;;;;4.97;4.40;;;;;;;33.64;36.21;98017.66;5052046;28;20822;-76
2023/08/12 10:54:17;;;;;;;4.63;4.20;;;;;;;34.26;34.41;98007.88;5051910;28;20466;-76
2023/08/12 10:57:11;;;;;;;5.00;4.60;;;;;;;33.77;36.03;98008.06;5051821;28;20439;-76
2023/08/12 10:59:55;;;;;;;4.40;4.00;;;;;;;33.26;37.52;98002.00;5042421;28;20459;-77
2023/08/12 11:02:26;;;;;;;5.53;4.00;;;;;;;33.08;37.72;97997.81;5052123;28;20530;-76
2023/08/12 11:04:54;;;;;;;4.43;4.03;;;;;;;32.80;37.85;97999.69;5051606;28;20458;-77
2023/08/12 11:07:23;;;;;;;3.90;3.50;;;;;;;32.62;38.54;97999.84;5051804;28;20964;-76
2023/08/12 11:09:53;;;;;;;4.03;3.73;;;;;;;33.16;35.24;97988.44;5051553;28;20561;-76
2023/08/12 11:12:32;;;;;;;4.07;3.77;;;;;;;33.61;34.52;97993.09;5051992;28;20451;-76
2023/08/12 11:15:01;;;;;;;4.50;4.10;;;;;;;33.76;34.52;98006.41;5051465;28;20473;-76
2023/08/12 11:17:34;;;;;;;3.80;3.50;;;;;;;33.74;34.12;97988.28;5051821;28;20471;-76
2023/08/12 11:20:03;;;;;;;3.70;3.40;;;;;;;33.67;34.20;97992.50;5051702;28;20527;-76
2023/08/12 11:22:31;;;;;;;3.33;3.00;;;;;;;33.37;34.90;97972.34;5051481;28;20497;-77
2023/08/12 11:24:57;;;;;;;4.30;3.30;;;;;;;32.99;35.19;97980.28;5051396;28;20443;-76
2023/08/12 11:27:24;;;;;;;3.80;3.50;;;;;;;33.31;34.57;97973.75;5051518;28;20459;-76
2023/08/12 11:29:51;;;;;;;3.63;3.33;;;;;;;33.02;34.80;97954.34;5051500;28;20556;-76
2023/08/12 11:32:20;;;;;;;3.80;3.50;;;;;;;33.20;35.50;97946.47;5051189;28;20446;-76
2023/08/12 11:34:47;;;;;;;3.60;3.40;;;;;;;33.70;35.06;97943.25;5051192;28;20573;-76
2023/08/12 11:37:14;;;;;;;3.40;3.10;;;;;;;33.89;33.50;97935.00;5051301;28;20870;-77
2023/08/12 11:39:41;;;;;;;3.63;3.33;;;;;;;34.04;32.98;97934.22;5051278;28;20533;-76